Time;durP1;ratioP1;P1;durP2;ratioP2;P2;SDS_P1;SDS_P2;PMS_P1;PMS_P2;Temp;Humidity;BMP_temperature;BMP_pressure;BME280_temperature;BME280_humidity;BME280_pressure;Samples;Min_cycle;Max_cycle;Signal;HPM_P1;HPM_P2
2021/12/23 00:03:37;;;;;;;4.90;4.30;;;;;;;-8.08;70.87;101180.75;31005117;28;20061;-84
2021/12/23 00:33:42;;;;;;;5.57;4.30;;;;;;;-8.12;72.42;101181.53;31040056;28;20065;-85
2021/12/23 00:48:44;;;;;;;5.53;3.77;;;;;;;-7.98;72.13;101170.16;30994769;28;20093;-84
2021/12/23 01:03:46;;;;;;;3.03;2.80;;;;;;;-7.97;72.17;101176.22;30987121;28;20154;-84
2021/12/23 01:18:53;;;;;;;7.77;3.13;;;;;;;-7.86;71.86;101177.00;30997022;28;20403;-86
2021/12/23 01:33:55;;;;;;;4.50;3.70;;;;;;;-7.99;72.12;101176.47;31009479;28;20476;-84
2021/12/23 01:48:57;;;;;;;10.93;6.60;;;;;;;-7.87;72.67;101180.69;31014661;28;20059;-85
2021/12/23 02:03:59;;;;;;;4.00;3.67;;;;;;;-7.75;72.23;101175.88;31012747;28;20050;-84
2021/12/23 02:19:04;;;;;;;5.77;3.73;;;;;;;-7.74;72.63;101180.88;31084482;28;20054;-84
2021/12/23 02:34:06;;;;;;;3.70;3.40;;;;;;;-7.90;71.75;101179.38;31002747;28;20061;-84
2021/12/23 02:49:09;;;;;;;5.33;3.90;;;;;;;-7.69;73.44;101188.00;30992505;28;20140;-85
2021/12/23 03:04:23;;;;;;;3.50;3.20;;;;;;;-7.60;71.61;101181.09;31025015;28;20416;-83
2021/12/23 03:19:25;;;;;;;4.17;3.77;;;;;;;-7.79;72.97;101198.59;31009176;28;20141;-85
2021/12/23 03:34:27;;;;;;;3.00;2.73;;;;;;;-7.74;73.30;101217.78;30989533;28;20145;-85
2021/12/23 03:49:28;;;;;;;5.53;3.80;;;;;;;-7.81;72.68;101221.78;30999765;28;20056;-84
2021/12/23 04:04:30;;;;;;;7.10;4.47;;;;;;;-7.84;73.10;101224.97;31032579;28;20090;-83
2021/12/23 04:19:33;;;;;;;9.10;4.43;;;;;;;-7.80;73.28;101239.19;31042187;28;20046;-85
2021/12/23 04:34:36;;;;;;;3.63;3.33;;;;;;;-7.90;74.39;101242.63;30992178;28;20076;-85
2021/12/23 04:49:38;;;;;;;4.40;3.87;;;;;;;-7.87;75.43;101254.50;31020568;28;20114;-83
2021/12/23 05:04:40;;;;;;;4.83;3.63;;;;;;;-7.92;73.97;101263.19;31019852;28;20146;-85
2021/12/23 05:19:42;;;;;;;4.07;3.67;;;;;;;-7.99;73.07;101279.28;31016076;28;20133;-86
2021/12/23 05:34:48;;;;;;;4.97;4.10;;;;;;;-7.99;72.33;101287.19;31012861;28;20046;-86
2021/12/23 05:49:50;;;;;;;4.33;3.93;;;;;;;-7.84;74.80;101301.41;31017752;28;20138;-85
2021/12/23 06:04:52;;;;;;;4.87;4.30;;;;;;;-7.75;75.02;101313.75;31015259;28;20086;-83
2021/12/23 06:19:54;;;;;;;5.50;2.93;;;;;;;-7.58;73.59;101324.03;31026891;28;20049;-85
2021/12/23 06:34:56;;;;;;;5.13;3.87;;;;;;;-7.85;72.43;101350.69;31013265;28;20046;-80
2021/12/23 06:49:58;;;;;;;5.27;4.40;;;;;;;-7.77;77.20;101357.25;31015483;28;20133;-85
2021/12/23 07:04:59;;;;;;;5.83;3.33;;;;;;;-7.56;74.15;101356.97;31007498;28;20802;-85
2021/12/23 07:20:02;;;;;;;4.77;3.90;;;;;;;-6.34;62.15;101355.66;31025762;28;20493;-87
2021/12/23 07:35:05;;;;;;;9.40;4.70;;;;;;;-6.79;62.98;101381.28;30995573;28;20137;-86
2021/12/23 07:50:09;;;;;;;5.87;3.50;;;;;;;-2.80;47.23;101363.25;31024213;28;20088;-81
2021/12/23 08:05:11;;;;;;;4.93;3.20;;;;;;;-1.88;46.42;101369.94;30999957;28;20054;-83
2021/12/23 08:20:15;;;;;;;5.07;3.77;;;;;;;-0.94;42.84;101360.78;31030652;28;20057;-83
2021/12/23 08:35:17;;;;;;;4.27;3.37;;;;;;;-0.68;42.29;101358.19;31055318;28;20050;-82
2021/12/23 08:50:21;;;;;;;6.53;3.63;;;;;;;-3.10;46.59;101372.63;31018583;28;20119;-83
2021/12/23 09:06:01;;;;;;;15.87;5.40;;;;;;;-2.13;45.91;101363.38;31022933;28;20062;-82
2021/12/23 09:21:04;;;;;;;6.03;3.93;;;;;;;-3.50;49.18;101373.38;30984342;28;20052;-83
2021/12/23 09:36:26;;;;;;;7.20;4.87;;;;;;;-3.58;49.78;101363.44;31025877;28;20054;-82
2021/12/23 09:51:30;;;;;;;7.27;3.77;;;;;;;-1.64;43.73;101353.63;31033419;28;20134;-81
2021/12/23 10:06:36;;;;;;;8.30;3.90;;;;;;;-1.79;42.92;101346.03;31028568;28;20508;-81
2021/12/23 10:37:17;;;;;;;4.30;3.43;;;;;;;-2.22;42.36;101332.47;30998825;28;20137;-82
2021/12/23 10:52:26;;;;;;;11.07;3.60;;;;;;;-2.32;43.12;101316.72;31014049;28;20085;-82
2021/12/23 11:54:04;;;;;;;6.27;3.73;;;;;;;-4.66;50.38;101331.69;31010448;28;20479;-85
2021/12/23 12:09:52;;;;;;;5.13;3.80;;;;;;;-5.84;53.79;101339.38;31017604;28;20085;-85
2021/12/23 12:24:54;;;;;;;7.40;3.23;;;;;;;-6.25;52.40;101340.81;31038231;28;20057;-86
2021/12/23 12:39:56;;;;;;;8.03;4.03;;;;;;;-6.78;53.88;101351.19;31022758;28;20080;-87
2021/12/23 12:55:08;;;;;;;6.47;4.07;;;;;;;-7.12;56.97;101361.63;31009104;28;20070;-78
2021/12/23 13:10:15;;;;;;;5.93;3.77;;;;;;;-7.36;56.24;101372.00;30984517;28;20451;-79
2021/12/23 13:25:21;;;;;;;3.40;3.10;;;;;;;-7.51;56.00;101374.63;30985467;28;20047;-79
2021/12/23 13:40:34;;;;;;;5.23;4.37;;;;;;;-7.77;57.79;101388.91;31013807;28;20140;-78
2021/12/23 13:55:36;;;;;;;4.70;3.57;;;;;;;-7.71;58.66;101387.84;31003620;28;20058;-79
2021/12/23 14:10:40;;;;;;;8.00;3.60;;;;;;;-7.43;57.94;101386.50;31003644;28;20125;-80
2021/12/23 14:26:09;;;;;;;2.53;2.30;;;;;;;-7.82;57.96;101402.09;31000796;28;20100;-79
2021/12/23 14:41:17;;;;;;;10.27;5.60;;;;;;;-7.99;58.34;101405.78;30996395;28;20053;-77
2021/12/23 14:56:25;;;;;;;13.83;6.87;;;;;;;-8.21;60.06;101407.84;30996999;28;20069;-78
2021/12/23 15:11:30;;;;;;;10.33;5.90;;;;;;;-8.27;61.07;101404.41;30996305;28;20054;-80
2021/12/23 15:26:34;;;;;;;8.37;4.60;;;;;;;-8.37;60.91;101399.19;31024933;28;20057;-79
2021/12/23 15:41:35;;;;;;;8.63;3.70;;;;;;;-8.26;60.67;101410.47;30995751;28;20050;-80
2021/12/23 15:56:40;;;;;;;3.70;3.33;;;;;;;-8.28;62.27;101407.34;30995369;28;20121;-81
2021/12/23 16:11:49;;;;;;;4.17;3.27;;;;;;;-8.25;61.70;101399.69;30993437;28;20053;-81
2021/12/23 16:26:51;;;;;;;6.10;3.77;;;;;;;-8.18;61.42;101404.72;30987499;28;20046;-79
2021/12/23 16:41:53;;;;;;;4.70;4.23;;;;;;;-8.36;62.86;101426.31;30991539;28;20065;-78
2021/12/23 17:12:07;;;;;;;9.50;4.90;;;;;;;-8.41;63.81;101447.34;31017801;28;20081;-80
2021/12/23 17:27:12;;;;;;;4.60;4.20;;;;;;;-8.55;64.50;101422.56;31011813;28;20050;-78
2021/12/23 17:42:14;;;;;;;;;;;;;;;-8.73;65.70;101405.38;31010643;28;20077;-79
2021/12/23 17:57:16;;;;;;;6.87;5.67;;;;;;;-8.87;64.39;101402.44;31001659;28;19922;-82
2021/12/23 18:12:19;;;;;;;16.07;6.63;;;;;;;-8.86;65.51;101411.91;30999528;28;20403;-81
2021/12/23 18:27:21;;;;;;;15.53;5.73;;;;;;;-8.94;65.72;101409.75;31005716;28;20058;-82
2021/12/23 18:42:31;;;;;;;7.27;6.57;;;;;;;-8.81;66.39;101409.31;31002508;28;20130;-79
2021/12/23 18:57:33;;;;;;;7.63;6.27;;;;;;;-8.83;66.60;101400.09;31003457;28;20072;-81
2021/12/23 19:12:34;;;;;;;11.53;7.30;;;;;;;-9.08;67.97;101406.03;31001013;28;20046;-82
2021/12/23 19:27:37;;;;;;;9.50;5.43;;;;;;;-9.22;67.65;101415.44;30996939;28;20145;-80
2021/12/23 19:42:39;;;;;;;14.27;6.43;;;;;;;-9.46;68.89;101423.69;31014179;28;20490;-80
2021/12/23 19:57:43;;;;;;;13.40;8.17;;;;;;;-9.32;69.02;101409.06;30997054;28;20512;-81
2021/12/23 20:12:45;;;;;;;7.97;6.67;;;;;;;-9.32;68.43;101393.28;30998499;28;20133;-81
2021/12/23 20:27:49;;;;;;;6.00;5.50;;;;;;;-9.16;67.08;101370.47;31010533;28;20090;-80
2021/12/23 20:42:51;;;;;;;9.60;6.40;;;;;;;-9.01;66.28;101351.34;31023412;28;20082;-81
2021/12/23 20:57:53;;;;;;;8.70;5.47;;;;;;;-9.07;66.97;101355.00;31003782;28;20050;-82
2021/12/23 21:12:59;;;;;;;9.53;5.50;;;;;;;-9.06;67.41;101343.41;31008926;28;20070;-80
2021/12/23 21:28:00;;;;;;;5.40;4.63;;;;;;;-9.44;67.45;101336.66;31014155;28;20053;-79
2021/12/23 21:43:03;;;;;;;3.67;3.00;;;;;;;-9.61;67.90;101326.31;31006108;28;20046;-79
2021/12/23 21:58:08;;;;;;;5.43;3.77;;;;;;;-9.74;68.63;101306.53;31001976;28;20141;-81
2021/12/23 22:13:10;;;;;;;3.97;3.67;;;;;;;-9.68;68.74;101299.44;31005481;28;20710;-79
2021/12/23 22:28:12;;;;;;;4.33;3.23;;;;;;;-9.28;66.80;101271.78;30984652;28;20930;-80
2021/12/23 22:43:14;;;;;;;7.07;4.03;;;;;;;-9.20;67.59;101279.16;31000937;28;20054;-80
2021/12/23 22:58:16;;;;;;;3.57;3.27;;;;;;;-9.25;68.72;101243.13;31005879;28;20076;-79
2021/12/23 23:13:19;;;;;;;5.43;5.03;;;;;;;-9.24;70.52;101243.94;30991361;28;20420;-79
2021/12/23 23:43:46;;;;;;;11.03;6.63;;;;;;;-9.41;76.24;101252.78;31000304;28;20133;-79
2021/12/23 23:58:48;;;;;;;7.03;6.00;;;;;;;-9.36;78.41;101242.31;31004072;28;20054;-79
